Time;durP1;ratioP1;P1;durP2;ratioP2;P2;SDS_P1;SDS_P2;PMS_P1;PMS_P2;Temp;Humidity;BMP_temperature;BMP_pressure;BME280_temperature;BME280_humidity;BME280_pressure;Samples;Min_cycle;Max_cycle;Signal;HPM_P1;HPM_P2
2023/05/15 00:00:14;;;;;;;7.53;3.22;;;;;;;;;;2088363;28;20021;-63
2023/05/15 00:01:32;;;;;;;5.55;3.17;;;;;;;;;;2091172;28;20016;-62
2023/05/15 00:02:52;;;;;;;7.57;3.40;;;;;;;;;;2091379;28;20185;-62
2023/05/15 00:04:11;;;;;;;5.45;3.53;;;;;;;;;;2092049;28;20048;-62
2023/05/15 00:05:30;;;;;;;5.68;3.33;;;;;;;;;;2090016;28;20049;-63
2023/05/15 00:06:50;;;;;;;6.57;3.10;;;;;;;;;;2093239;28;20385;-62
2023/05/15 00:08:09;;;;;;;3.67;3.13;;;;;;;;;;2096391;28;20032;-63
2023/05/15 00:09:28;;;;;;;5.15;3.00;;;;;;;;;;2092961;28;20505;-63
2023/05/15 00:10:46;;;;;;;4.25;3.00;;;;;;;;;;2088032;28;20029;-63
2023/05/15 00:12:06;;;;;;;5.43;3.33;;;;;;;;;;2091567;28;20051;-63
2023/05/15 00:13:25;;;;;;;9.10;3.45;;;;;;;;;;2092887;28;20052;-63
2023/05/15 00:14:44;;;;;;;7.25;3.55;;;;;;;;;;2093967;28;20075;-63
2023/05/15 00:16:09;;;;;;;10.07;3.50;;;;;;;;;;2086144;28;20033;-62
2023/05/15 00:17:28;;;;;;;4.13;3.40;;;;;;;;;;2089068;28;20032;-63
2023/05/15 00:18:47;;;;;;;12.20;3.95;;;;;;;;;;2086784;28;20041;-62
2023/05/15 00:20:08;;;;;;;7.13;3.25;;;;;;;;;;2092513;28;20041;-62
2023/05/15 00:21:27;;;;;;;4.03;3.65;;;;;;;;;;2081823;28;20393;-63
2023/05/15 00:22:46;;;;;;;3.85;3.47;;;;;;;;;;2088110;28;20415;-62
2023/05/15 00:24:05;;;;;;;7.65;3.70;;;;;;;;;;2096274;28;20028;-63
2023/05/15 00:25:24;;;;;;;7.40;3.53;;;;;;;;;;2094259;28;20064;-62
2023/05/15 00:26:42;;;;;;;5.72;3.95;;;;;;;;;;2091925;28;20068;-63
2023/05/15 00:28:01;;;;;;;4.53;3.55;;;;;;;;;;2091518;28;20025;-63
2023/05/15 00:29:21;;;;;;;7.30;3.03;;;;;;;;;;2085907;28;20666;-63
2023/05/15 00:30:40;;;;;;;5.53;3.67;;;;;;;;;;2089739;28;20490;-63
2023/05/15 00:31:59;;;;;;;5.38;3.15;;;;;;;;;;2092952;28;20044;-63
2023/05/15 00:33:18;;;;;;;6.18;3.47;;;;;;;;;;2091430;28;20040;-61
2023/05/15 00:34:37;;;;;;;3.85;3.42;;;;;;;;;;2089750;28;20084;-61
2023/05/15 00:35:56;;;;;;;4.03;3.67;;;;;;;;;;2093358;28;20032;-62
2023/05/15 00:37:15;;;;;;;3.75;3.50;;;;;;;;;;2087889;28;20036;-62
2023/05/15 00:38:33;;;;;;;7.35;3.92;;;;;;;;;;2088824;28;20032;-62
2023/05/15 00:39:52;;;;;;;4.90;4.10;;;;;;;;;;2087289;28;20116;-62
2023/05/15 00:41:11;;;;;;;5.57;3.65;;;;;;;;;;2093643;28;20029;-62
2023/05/15 00:42:30;;;;;;;3.85;3.47;;;;;;;;;;2092729;28;20021;-62
2023/05/15 00:43:53;;;;;;;4.43;3.63;;;;;;;;;;2092740;28;20025;-62
2023/05/15 00:45:12;;;;;;;6.03;3.20;;;;;;;;;;2089705;28;20029;-62
2023/05/15 00:46:33;;;;;;;7.38;3.47;;;;;;;;;;2091728;28;20630;-64
2023/05/15 00:47:53;;;;;;;4.53;3.33;;;;;;;;;;2087863;28;20032;-61
2023/05/15 00:49:13;;;;;;;6.05;3.63;;;;;;;;;;2088164;28;20064;-62
2023/05/15 00:50:32;;;;;;;22.05;4.85;;;;;;;;;;2092060;28;20037;-62
2023/05/15 00:51:51;;;;;;;17.05;4.53;;;;;;;;;;2090015;28;20029;-63
2023/05/15 00:53:10;;;;;;;14.00;4.03;;;;;;;;;;2090359;28;20025;-62
2023/05/15 00:54:29;;;;;;;10.73;4.82;;;;;;;;;;2089867;28;20037;-62
2023/05/15 00:55:48;;;;;;;15.98;4.93;;;;;;;;;;2088366;28;20020;-62
2023/05/15 00:57:08;;;;;;;15.10;4.22;;;;;;;;;;2092856;28;20017;-62
2023/05/15 00:58:28;;;;;;;12.85;5.05;;;;;;;;;;2094271;28;20442;-62
2023/05/15 00:59:47;;;;;;;18.48;4.32;;;;;;;;;;2092469;28;20033;-62
2023/05/15 01:01:06;;;;;;;17.52;5.45;;;;;;;;;;2089393;28;20025;-62
2023/05/15 01:02:25;;;;;;;13.25;4.68;;;;;;;;;;2090879;28;20040;-62
2023/05/15 01:03:45;;;;;;;16.95;5.60;;;;;;;;;;2091483;28;20021;-63
2023/05/15 01:05:06;;;;;;;19.58;5.40;;;;;;;;;;2092955;28;20427;-63
2023/05/15 01:06:25;;;;;;;19.63;4.88;;;;;;;;;;2092522;28;20037;-63
2023/05/15 01:07:48;;;;;;;18.00;4.55;;;;;;;;;;2093564;28;20041;-63
2023/05/15 01:09:08;;;;;;;12.00;4.50;;;;;;;;;;2095431;28;20115;-63
2023/05/15 01:10:27;;;;;;;13.80;5.07;;;;;;;;;;2088211;28;20020;-62
2023/05/15 01:11:46;;;;;;;13.18;4.32;;;;;;;;;;2092245;28;20485;-63
2023/05/15 01:13:06;;;;;;;13.45;4.47;;;;;;;;;;2088873;28;20037;-63
2023/05/15 01:14:26;;;;;;;13.40;4.40;;;;;;;;;;2090938;28;20397;-63
2023/05/15 01:15:45;;;;;;;6.38;4.18;;;;;;;;;;2088559;28;20028;-63
2023/05/15 01:17:04;;;;;;;12.10;4.50;;;;;;;;;;2091415;28;20033;-62
2023/05/15 01:18:24;;;;;;;13.73;4.90;;;;;;;;;;2090142;28;20033;-63
2023/05/15 01:19:45;;;;;;;12.80;4.88;;;;;;;;;;2091500;28;20048;-63
2023/05/15 01:21:04;;;;;;;11.55;4.50;;;;;;;;;;2089092;28;20068;-62
2023/05/15 01:22:37;;;;;;;12.93;4.47;;;;;;;;;;2090471;28;20061;-63
2023/05/15 01:24:23;;;;;;;8.35;4.22;;;;;;;;;;2090256;28;21168;-63
2023/05/15 01:26:01;;;;;;;9.25;4.70;;;;;;;;;;2073601;28;20024;-63
2023/05/15 01:27:40;;;;;;;9.93;4.68;;;;;;;;;;2084541;28;20029;-63
2023/05/15 01:29:05;;;;;;;7.03;4.18;;;;;;;;;;2091532;28;20136;-63
2023/05/15 01:30:27;;;;;;;5.30;4.78;;;;;;;;;;2084871;28;20030;-63
2023/05/15 01:31:49;;;;;;;6.13;4.63;;;;;;;;;;2093006;28;20041;-62
2023/05/15 01:33:23;;;;;;;8.23;4.32;;;;;;;;;;2088577;28;20397;-67
2023/05/15 01:34:44;;;;;;;9.90;4.53;;;;;;;;;;2088786;28;20041;-63
2023/05/15 01:36:11;;;;;;;8.75;4.28;;;;;;;;;;2093304;28;20020;-62
2023/05/15 01:37:31;;;;;;;7.53;3.92;;;;;;;;;;2092483;28;20404;-63
2023/05/15 01:38:55;;;;;;;8.50;3.75;;;;;;;;;;2093042;28;20040;-62
2023/05/15 01:40:16;;;;;;;6.47;3.95;;;;;;;;;;2091719;28;20453;-62
2023/05/15 01:41:44;;;;;;;5.70;4.28;;;;;;;;;;2091248;28;20041;-63
2023/05/15 01:43:07;;;;;;;5.93;4.50;;;;;;;;;;2091372;28;20029;-63
2023/05/15 01:44:30;;;;;;;7.13;4.10;;;;;;;;;;2090642;28;20024;-63
2023/05/15 01:45:49;;;;;;;9.52;4.20;;;;;;;;;;2082790;28;20024;-63
2023/05/15 01:47:11;;;;;;;5.30;4.80;;;;;;;;;;2087871;28;20044;-63
2023/05/15 01:48:32;;;;;;;6.32;4.75;;;;;;;;;;2086550;28;20033;-63
2023/05/15 01:49:52;;;;;;;4.72;4.20;;;;;;;;;;2089958;28;20111;-63
2023/05/15 01:51:12;;;;;;;5.75;3.78;;;;;;;;;;2093130;28;20403;-62
2023/05/15 01:52:33;;;;;;;4.60;4.13;;;;;;;;;;2087091;28;20037;-63
2023/05/15 01:53:52;;;;;;;6.63;4.60;;;;;;;;;;2087899;28;20029;-63
2023/05/15 01:55:13;;;;;;;5.07;4.65;;;;;;;;;;2092604;28;20029;-63
2023/05/15 01:56:32;;;;;;;4.75;4.28;;;;;;;;;;2090167;28;20056;-63
2023/05/15 01:57:51;;;;;;;4.63;4.28;;;;;;;;;;2089975;28;20028;-63
2023/05/15 01:59:14;;;;;;;4.65;4.20;;;;;;;;;;2090405;28;20029;-63
2023/05/15 02:00:33;;;;;;;4.53;4.13;;;;;;;;;;2087567;28;20126;-63
2023/05/15 02:01:53;;;;;;;8.38;4.80;;;;;;;;;;2089524;28;20061;-61
2023/05/15 02:03:12;;;;;;;9.60;4.72;;;;;;;;;;2091425;28;20485;-62
2023/05/15 02:04:32;;;;;;;8.90;4.45;;;;;;;;;;2092147;28;20033;-62
2023/05/15 02:05:52;;;;;;;6.45;4.15;;;;;;;;;;2089221;28;20072;-67
2023/05/15 02:07:11;;;;;;;5.35;4.30;;;;;;;;;;2087797;28;20017;-62
2023/05/15 02:08:31;;;;;;;7.78;4.05;;;;;;;;;;2092074;28;20028;-63
2023/05/15 02:09:51;;;;;;;8.82;4.47;;;;;;;;;;2092309;28;20028;-62
2023/05/15 02:11:10;;;;;;;6.53;4.30;;;;;;;;;;2090938;28;20024;-62
2023/05/15 02:12:30;;;;;;;8.50;4.22;;;;;;;;;;2090153;28;20112;-61
2023/05/15 02:13:50;;;;;;;8.60;4.82;;;;;;;;;;2092901;28;20017;-62
2023/05/15 02:15:10;;;;;;;11.63;4.85;;;;;;;;;;2089723;28;20036;-62
2023/05/15 02:16:29;;;;;;;7.28;4.95;;;;;;;;;;2091039;28;20037;-62
2023/05/15 02:17:47;;;;;;;7.03;5.28;;;;;;;;;;2091760;28;20025;-63
2023/05/15 02:19:06;;;;;;;11.32;4.72;;;;;;;;;;2089134;28;20033;-62
2023/05/15 02:20:25;;;;;;;9.55;4.80;;;;;;;;;;2090637;28;20028;-62
2023/05/15 02:21:44;;;;;;;12.27;5.32;;;;;;;;;;2090721;28;20029;-62
2023/05/15 02:23:03;;;;;;;6.78;5.00;;;;;;;;;;2092140;28;20456;-63
2023/05/15 02:24:22;;;;;;;9.75;4.28;;;;;;;;;;2091534;28;20037;-63
2023/05/15 02:25:41;;;;;;;8.25;4.53;;;;;;;;;;2086703;28;20036;-63
2023/05/15 02:27:00;;;;;;;11.00;4.45;;;;;;;;;;2092654;28;20029;-63
2023/05/15 02:28:29;;;;;;;7.65;4.65;;;;;;;;;;2087614;28;20040;-62
2023/05/15 02:30:07;;;;;;;13.27;5.05;;;;;;;;;;2091509;28;20406;-62
2023/05/15 02:31:33;;;;;;;5.47;4.60;;;;;;;;;;2092633;28;20032;-63
2023/05/15 02:33:18;;;;;;;6.78;4.70;;;;;;;;;;2092520;28;20115;-62
2023/05/15 02:34:55;;;;;;;5.38;3.90;;;;;;;;;;2071358;28;20037;-63
2023/05/15 02:36:18;;;;;;;6.60;4.55;;;;;;;;;;2090462;28;20518;-62
2023/05/15 02:37:41;;;;;;;7.18;4.43;;;;;;;;;;2086540;28;22592;-63
2023/05/15 02:39:00;;;;;;;6.80;4.10;;;;;;;;;;2086851;28;20025;-63
2023/05/15 02:40:22;;;;;;;5.78;4.30;;;;;;;;;;2092022;28;20024;-62
2023/05/15 02:41:41;;;;;;;7.70;4.15;;;;;;;;;;2094059;28;20462;-63
2023/05/15 02:43:00;;;;;;;5.03;4.43;;;;;;;;;;2089633;28;20033;-62
2023/05/15 02:44:20;;;;;;;4.30;4.00;;;;;;;;;;2094119;28;20028;-63
2023/05/15 02:45:39;;;;;;;6.47;3.83;;;;;;;;;;2088297;28;20033;-62
2023/05/15 02:46:58;;;;;;;4.35;4.05;;;;;;;;;;2091491;28;20638;-63
2023/05/15 02:48:17;;;;;;;7.43;4.53;;;;;;;;;;2090568;28;20033;-62
2023/05/15 02:49:36;;;;;;;5.38;4.82;;;;;;;;;;2091270;28;20025;-62
2023/05/15 02:50:56;;;;;;;6.45;4.00;;;;;;;;;;2091510;28;20708;-63
2023/05/15 02:52:15;;;;;;;8.52;4.65;;;;;;;;;;2089153;28;20021;-62
2023/05/15 02:53:38;;;;;;;7.28;4.45;;;;;;;;;;2089462;28;20025;-63
2023/05/15 02:54:56;;;;;;;4.57;4.22;;;;;;;;;;2090657;28;20025;-62
2023/05/15 02:56:15;;;;;;;4.68;4.30;;;;;;;;;;2091569;28;20370;-62
2023/05/15 02:57:34;;;;;;;8.63;4.47;;;;;;;;;;2091744;28;20394;-62
2023/05/15 02:58:53;;;;;;;4.45;4.15;;;;;;;;;;2089650;28;20024;-62
2023/05/15 03:00:14;;;;;;;7.38;4.70;;;;;;;;;;2088847;28;20024;-62
2023/05/15 03:01:33;;;;;;;5.30;4.70;;;;;;;;;;2091396;28;20036;-62
2023/05/15 03:02:52;;;;;;;5.57;4.65;;;;;;;;;;2093536;28;20063;-62
2023/05/15 03:04:13;;;;;;;5.38;4.60;;;;;;;;;;2094319;28;20028;-62
2023/05/15 03:05:31;;;;;;;7.53;4.82;;;;;;;;;;2091872;28;20498;-63
2023/05/15 03:06:50;;;;;;;4.65;4.25;;;;;;;;;;2094799;28;20048;-62
2023/05/15 03:08:09;;;;;;;6.22;4.50;;;;;;;;;;2090269;28;20111;-62
2023/05/15 03:09:28;;;;;;;4.85;4.50;;;;;;;;;;2094168;28;20036;-62
2023/05/15 03:10:47;;;;;;;5.03;4.68;;;;;;;;;;2092056;28;20032;-62
2023/05/15 03:12:07;;;;;;;6.63;4.93;;;;;;;;;;2091388;28;20425;-62
2023/05/15 03:13:26;;;;;;;5.18;4.40;;;;;;;;;;2085960;28;20037;-62
2023/05/15 03:14:45;;;;;;;5.75;3.65;;;;;;;;;;2093136;28;20103;-62
2023/05/15 03:16:04;;;;;;;8.95;4.38;;;;;;;;;;2094198;28;20025;-62
2023/05/15 03:17:23;;;;;;;4.10;3.80;;;;;;;;;;2093008;28;20024;-63
2023/05/15 03:18:42;;;;;;;9.57;3.97;;;;;;;;;;2091221;28;20028;-64
2023/05/15 03:20:01;;;;;;;5.10;4.43;;;;;;;;;;2092158;28;20021;-62
2023/05/15 03:21:20;;;;;;;6.22;4.60;;;;;;;;;;2094926;28;20032;-66
2023/05/15 03:22:39;;;;;;;7.35;4.40;;;;;;;;;;2094758;28;20040;-62
2023/05/15 03:23:58;;;;;;;4.60;4.05;;;;;;;;;;2093341;28;20389;-66
2023/05/15 03:25:17;;;;;;;5.13;4.00;;;;;;;;;;2092524;28;20041;-62
2023/05/15 03:26:36;;;;;;;4.90;4.22;;;;;;;;;;2093303;28;20084;-63
2023/05/15 03:27:55;;;;;;;6.60;4.28;;;;;;;;;;2094038;28;20025;-62
2023/05/15 03:29:14;;;;;;;7.70;4.20;;;;;;;;;;2087013;28;20032;-62
2023/05/15 03:30:33;;;;;;;7.97;4.47;;;;;;;;;;2087567;28;20036;-63
2023/05/15 03:31:52;;;;;;;8.43;4.50;;;;;;;;;;2093382;28;20049;-62
2023/05/15 03:33:11;;;;;;;4.55;4.25;;;;;;;;;;2088859;28;20025;-62
2023/05/15 03:34:31;;;;;;;4.70;4.22;;;;;;;;;;2092048;28;20037;-62
2023/05/15 03:35:51;;;;;;;4.22;3.92;;;;;;;;;;2092635;28;20037;-63
2023/05/15 03:37:10;;;;;;;4.90;3.95;;;;;;;;;;2090834;28;20021;-62
2023/05/15 03:38:29;;;;;;;4.50;4.20;;;;;;;;;;2092702;28;20053;-63
2023/05/15 03:39:48;;;;;;;6.07;4.07;;;;;;;;;;2093863;28;20637;-62
2023/05/15 03:41:07;;;;;;;6.55;4.20;;;;;;;;;;2093983;28;20071;-62
2023/05/15 03:42:26;;;;;;;4.65;4.18;;;;;;;;;;2092635;28;20052;-62
2023/05/15 03:43:46;;;;;;;4.65;4.18;;;;;;;;;;2090067;28;20147;-63
2023/05/15 03:45:05;;;;;;;5.80;4.53;;;;;;;;;;2089981;28;20025;-63
2023/05/15 03:46:24;;;;;;;5.43;5.00;;;;;;;;;;2094565;28;20025;-62
2023/05/15 03:47:43;;;;;;;5.68;4.60;;;;;;;;;;2091023;28;20029;-62
2023/05/15 03:49:02;;;;;;;5.63;5.10;;;;;;;;;;2088678;28;20025;-62
2023/05/15 03:50:21;;;;;;;5.32;4.75;;;;;;;;;;2092932;28;20057;-62
2023/05/15 03:51:40;;;;;;;5.43;4.88;;;;;;;;;;2092437;28;20032;-62
2023/05/15 03:52:59;;;;;;;5.13;4.72;;;;;;;;;;2089205;28;20033;-66
2023/05/15 03:54:18;;;;;;;10.60;4.55;;;;;;;;;;2089045;28;20028;-62
2023/05/15 03:55:37;;;;;;;6.32;5.03;;;;;;;;;;2092986;28;20116;-62
2023/05/15 03:56:56;;;;;;;8.82;4.72;;;;;;;;;;2091724;28;20037;-62
2023/05/15 03:58:15;;;;;;;8.10;5.03;;;;;;;;;;2091302;28;20498;-63
2023/05/15 03:59:34;;;;;;;4.82;4.43;;;;;;;;;;2094278;28;20032;-62
2023/05/15 04:00:53;;;;;;;4.95;4.55;;;;;;;;;;2087532;28;20123;-63
2023/05/15 04:02:12;;;;;;;8.30;5.00;;;;;;;;;;2094339;28;20033;-62
2023/05/15 04:03:32;;;;;;;9.75;5.30;;;;;;;;;;2087475;28;20044;-62
2023/05/15 04:04:51;;;;;;;5.20;4.30;;;;;;;;;;2091553;28;20029;-62
2023/05/15 04:06:10;;;;;;;5.40;5.00;;;;;;;;;;2090544;28;20041;-61
2023/05/15 04:07:29;;;;;;;4.75;4.43;;;;;;;;;;2092939;28;20032;-62
2023/05/15 04:08:48;;;;;;;8.02;4.95;;;;;;;;;;2090701;28;20029;-62
2023/05/15 04:10:07;;;;;;;10.40;5.03;;;;;;;;;;2094313;28;20458;-62
2023/05/15 04:11:27;;;;;;;6.13;4.72;;;;;;;;;;2089398;28;20034;-61
2023/05/15 04:12:47;;;;;;;6.55;4.25;;;;;;;;;;2089355;28;20037;-61
2023/05/15 04:14:06;;;;;;;5.13;4.03;;;;;;;;;;2094227;28;20493;-62
2023/05/15 04:15:27;;;;;;;5.22;4.43;;;;;;;;;;2087186;28;20530;-61
2023/05/15 04:16:46;;;;;;;6.07;4.70;;;;;;;;;;2086142;28;20033;-62
2023/05/15 04:18:05;;;;;;;6.10;4.90;;;;;;;;;;2091387;28;20028;-63
2023/05/15 04:19:24;;;;;;;9.35;5.50;;;;;;;;;;2092359;28;21185;-62
2023/05/15 04:20:43;;;;;;;8.00;5.35;;;;;;;;;;2096417;28;20037;-60
2023/05/15 04:22:02;;;;;;;7.30;4.47;;;;;;;;;;2094469;28;20052;-62
2023/05/15 04:23:21;;;;;;;4.40;4.00;;;;;;;;;;2091505;28;20028;-61
2023/05/15 04:24:40;;;;;;;8.68;4.72;;;;;;;;;;2090350;28;21061;-62
2023/05/15 04:25:59;;;;;;;6.97;4.78;;;;;;;;;;2094837;28;20029;-62
2023/05/15 04:27:18;;;;;;;6.22;4.10;;;;;;;;;;2088697;28;20045;-62
2023/05/15 04:28:36;;;;;;;9.52;4.75;;;;;;;;;;2091537;28;20033;-62
2023/05/15 04:29:55;;;;;;;9.23;4.85;;;;;;;;;;2089883;28;20501;-62
2023/05/15 04:31:14;;;;;;;6.35;4.78;;;;;;;;;;2093601;28;20056;-62
2023/05/15 04:32:34;;;;;;;6.63;5.00;;;;;;;;;;2090588;28;20077;-61
2023/05/15 04:33:53;;;;;;;12.05;5.53;;;;;;;;;;2089655;28;20029;-62
2023/05/15 04:35:13;;;;;;;13.82;5.35;;;;;;;;;;2087880;28;20029;-62
2023/05/15 04:36:33;;;;;;;6.15;4.60;;;;;;;;;;2092095;28;20028;-62
2023/05/15 04:37:53;;;;;;;6.32;4.72;;;;;;;;;;2087892;28;20013;-63
2023/05/15 04:39:11;;;;;;;5.88;4.32;;;;;;;;;;2084973;28;20056;-63
2023/05/15 04:40:31;;;;;;;6.97;4.72;;;;;;;;;;2091209;28;20025;-61
2023/05/15 04:41:50;;;;;;;12.05;4.38;;;;;;;;;;2092493;28;20485;-62
2023/05/15 04:43:09;;;;;;;5.25;4.72;;;;;;;;;;2093575;28;20127;-62
2023/05/15 04:44:28;;;;;;;9.65;4.50;;;;;;;;;;2092101;28;20033;-62
2023/05/15 04:45:47;;;;;;;5.88;4.10;;;;;;;;;;2089415;28;20029;-63
2023/05/15 04:47:05;;;;;;;5.50;4.95;;;;;;;;;;2090978;28;20049;-63
2023/05/15 04:48:24;;;;;;;6.25;4.88;;;;;;;;;;2088439;28;20028;-63
2023/05/15 04:49:43;;;;;;;5.28;4.85;;;;;;;;;;2090075;28;20033;-63
2023/05/15 04:51:02;;;;;;;7.80;4.50;;;;;;;;;;2091392;28;20538;-62
2023/05/15 04:52:21;;;;;;;5.40;4.95;;;;;;;;;;2084031;28;20044;-63
2023/05/15 04:53:40;;;;;;;6.00;4.70;;;;;;;;;;2090278;28;20064;-63
2023/05/15 04:54:59;;;;;;;10.85;5.15;;;;;;;;;;2091702;28;20417;-63
2023/05/15 04:56:18;;;;;;;6.65;4.93;;;;;;;;;;2092401;28;20029;-63
2023/05/15 04:57:37;;;;;;;7.07;4.63;;;;;;;;;;2092039;28;20112;-63
2023/05/15 04:58:56;;;;;;;10.48;5.35;;;;;;;;;;2085578;28;20025;-63
2023/05/15 05:00:15;;;;;;;6.38;5.50;;;;;;;;;;2088756;28;20028;-63
2023/05/15 05:01:34;;;;;;;7.90;5.85;;;;;;;;;;2092702;28;20025;-63
2023/05/15 05:02:53;;;;;;;14.77;6.55;;;;;;;;;;2086130;28;20029;-63
2023/05/15 05:04:13;;;;;;;9.15;5.00;;;;;;;;;;2092473;28;20021;-63
2023/05/15 05:05:32;;;;;;;8.45;4.80;;;;;;;;;;2089278;28;20049;-63
2023/05/15 05:06:51;;;;;;;11.05;5.07;;;;;;;;;;2091206;28;20486;-63
2023/05/15 05:08:10;;;;;;;6.07;5.22;;;;;;;;;;2086300;28;21412;-63
2023/05/15 05:09:29;;;;;;;9.35;5.05;;;;;;;;;;2089461;28;20029;-63
2023/05/15 05:10:47;;;;;;;12.20;5.22;;;;;;;;;;2090144;28;20425;-63
2023/05/15 05:12:07;;;;;;;21.45;5.97;;;;;;;;;;2087028;28;20033;-63
2023/05/15 05:13:26;;;;;;;16.90;5.38;;;;;;;;;;2087150;28;20808;-63
2023/05/15 05:14:45;;;;;;;10.07;5.10;;;;;;;;;;2092829;28;20489;-63
2023/05/15 05:16:04;;;;;;;13.93;5.43;;;;;;;;;;2092034;28;20112;-63
2023/05/15 05:17:23;;;;;;;10.00;5.18;;;;;;;;;;2091029;28;20406;-63
2023/05/15 05:18:42;;;;;;;7.65;4.97;;;;;;;;;;2091450;28;20503;-63
2023/05/15 05:20:01;;;;;;;12.73;4.53;;;;;;;;;;2093149;28;20032;-63
2023/05/15 05:21:20;;;;;;;13.43;5.07;;;;;;;;;;2086779;28;20032;-63
2023/05/15 05:22:41;;;;;;;9.55;5.35;;;;;;;;;;2087603;28;20033;-63
2023/05/15 05:24:00;;;;;;;19.77;6.28;;;;;;;;;;2094344;28;20029;-63
2023/05/15 05:25:19;;;;;;;17.17;5.35;;;;;;;;;;2079064;28;20033;-63
2023/05/15 05:26:38;;;;;;;13.57;5.07;;;;;;;;;;2090675;28;20755;-62
2023/05/15 05:27:57;;;;;;;10.40;5.15;;;;;;;;;;2088224;28;20095;-63
2023/05/15 05:29:16;;;;;;;5.50;4.97;;;;;;;;;;2092635;28;20115;-63
2023/05/15 05:30:35;;;;;;;9.32;4.50;;;;;;;;;;2090205;28;20497;-63
2023/05/15 05:31:53;;;;;;;17.58;4.78;;;;;;;;;;2086370;28;20045;-63
2023/05/15 05:33:13;;;;;;;13.55;5.00;;;;;;;;;;2087277;28;20033;-62
2023/05/15 05:34:32;;;;;;;15.80;5.57;;;;;;;;;;2085313;28;20529;-63
2023/05/15 05:35:51;;;;;;;7.47;4.35;;;;;;;;;;2088736;28;20688;-63
2023/05/15 05:37:10;;;;;;;10.07;4.38;;;;;;;;;;2092034;28;20029;-63
2023/05/15 05:38:29;;;;;;;8.40;5.03;;;;;;;;;;2088702;28;20445;-63
2023/05/15 05:39:49;;;;;;;8.45;4.70;;;;;;;;;;2091289;28;20029;-63
2023/05/15 05:41:08;;;;;;;10.18;4.70;;;;;;;;;;2094482;28;20037;-64
2023/05/15 05:42:27;;;;;;;10.07;4.80;;;;;;;;;;2087194;28;20025;-63
2023/05/15 05:43:46;;;;;;;9.85;5.28;;;;;;;;;;2092301;28;20424;-64
2023/05/15 05:45:05;;;;;;;13.90;4.82;;;;;;;;;;2089597;28;20513;-63
2023/05/15 05:46:26;;;;;;;14.65;4.57;;;;;;;;;;2088232;28;20037;-63
2023/05/15 05:47:45;;;;;;;7.47;4.45;;;;;;;;;;2085001;28;20033;-64
2023/05/15 05:49:04;;;;;;;9.55;4.10;;;;;;;;;;2088302;28;20416;-63
2023/05/15 05:50:23;;;;;;;5.57;4.38;;;;;;;;;;2088376;28;20032;-64
2023/05/15 05:51:44;;;;;;;12.82;5.18;;;;;;;;;;2080280;28;20025;-63
2023/05/15 05:53:03;;;;;;;10.55;4.90;;;;;;;;;;2089743;28;20115;-63
2023/05/15 05:54:22;;;;;;;8.88;4.65;;;;;;;;;;2089750;28;20119;-63
2023/05/15 05:55:41;;;;;;;13.68;5.40;;;;;;;;;;2077108;28;20090;-63
2023/05/15 05:57:00;;;;;;;11.00;4.95;;;;;;;;;;2081443;28;20029;-63
2023/05/15 05:58:19;;;;;;;14.25;4.97;;;;;;;;;;2085093;28;20025;-63
2023/05/15 05:59:39;;;;;;;14.05;5.00;;;;;;;;;;2091232;28;20059;-63
2023/05/15 06:00:58;;;;;;;14.07;5.10;;;;;;;;;;2089084;28;20017;-63
2023/05/15 06:02:17;;;;;;;9.40;4.90;;;;;;;;;;2089521;28;20017;-64
2023/05/15 06:03:37;;;;;;;10.25;4.55;;;;;;;;;;2092798;28;20056;-64
2023/05/15 06:04:56;;;;;;;5.05;4.30;;;;;;;;;;2092328;28;20037;-62
2023/05/15 06:06:15;;;;;;;16.52;4.95;;;;;;;;;;2092810;28;20052;-63
2023/05/15 06:07:34;;;;;;;9.57;4.78;;;;;;;;;;2089804;28;20029;-63
2023/05/15 06:08:53;;;;;;;10.75;5.43;;;;;;;;;;2093061;28;20635;-63
2023/05/15 06:10:12;;;;;;;14.90;4.72;;;;;;;;;;2091838;28;20049;-63
2023/05/15 06:11:32;;;;;;;17.70;5.00;;;;;;;;;;2089305;28;20037;-63
2023/05/15 06:12:51;;;;;;;7.60;4.60;;;;;;;;;;2085383;28;20020;-64
2023/05/15 06:14:10;;;;;;;13.65;4.32;;;;;;;;;;2090886;28;20103;-63
2023/05/15 06:15:29;;;;;;;14.77;4.93;;;;;;;;;;2091270;28;20032;-63
2023/05/15 06:16:49;;;;;;;9.07;4.90;;;;;;;;;;2094081;28;20037;-63
2023/05/15 06:18:08;;;;;;;14.02;5.20;;;;;;;;;;2090299;28;20054;-63
2023/05/15 06:19:27;;;;;;;7.55;4.20;;;;;;;;;;2089334;28;20619;-63
2023/05/15 06:20:46;;;;;;;15.80;4.70;;;;;;;;;;2090442;28;20103;-63
2023/05/15 06:22:05;;;;;;;11.07;4.07;;;;;;;;;;2092130;28;20064;-64
2023/05/15 06:23:24;;;;;;;14.60;4.88;;;;;;;;;;2092686;28;20029;-63
2023/05/15 06:24:43;;;;;;;13.80;4.47;;;;;;;;;;2086866;28;20127;-63
2023/05/15 06:26:03;;;;;;;10.35;3.83;;;;;;;;;;2092011;28;20025;-63
2023/05/15 06:27:23;;;;;;;14.05;4.82;;;;;;;;;;2082710;28;20029;-63
2023/05/15 06:28:42;;;;;;;18.30;4.65;;;;;;;;;;2086451;28;20099;-64
2023/05/15 06:30:01;;;;;;;10.68;4.13;;;;;;;;;;2090321;28;20033;-63
2023/05/15 06:31:20;;;;;;;11.88;4.60;;;;;;;;;;2088755;28;20452;-63
2023/05/15 06:32:40;;;;;;;6.18;4.78;;;;;;;;;;2091211;28;20032;-63
2023/05/15 06:33:59;;;;;;;11.98;4.60;;;;;;;;;;2089181;28;20037;-63
2023/05/15 06:35:18;;;;;;;14.18;4.10;;;;;;;;;;2090487;28;20115;-63
2023/05/15 06:36:37;;;;;;;9.80;4.47;;;;;;;;;;2088494;28;20060;-63
2023/05/15 06:37:56;;;;;;;10.38;4.30;;;;;;;;;;2091312;28;20055;-63
2023/05/15 06:39:15;;;;;;;11.20;4.35;;;;;;;;;;2089321;28;20099;-63
2023/05/15 06:40:34;;;;;;;10.23;4.05;;;;;;;;;;2091108;28;20041;-63
2023/05/15 06:41:57;;;;;;;9.73;4.80;;;;;;;;;;2092384;28;20029;-63
2023/05/15 06:43:16;;;;;;;14.13;4.15;;;;;;;;;;2090720;28;20461;-62
2023/05/15 06:44:35;;;;;;;13.63;4.05;;;;;;;;;;2086536;28;20408;-63
2023/05/15 06:45:54;;;;;;;8.75;4.20;;;;;;;;;;2087585;28;20255;-63
2023/05/15 06:47:13;;;;;;;9.25;4.20;;;;;;;;;;2091712;28;20036;-63
2023/05/15 06:48:32;;;;;;;11.70;4.10;;;;;;;;;;2088271;28;20597;-63
2023/05/15 06:49:52;;;;;;;7.10;3.90;;;;;;;;;;2092303;28;20060;-64
2023/05/15 06:51:11;;;;;;;9.73;3.40;;;;;;;;;;2090612;28;20037;-63
2023/05/15 06:52:30;;;;;;;4.65;3.42;;;;;;;;;;2089187;28;20029;-63
2023/05/15 06:53:49;;;;;;;8.18;4.10;;;;;;;;;;2089009;28;20521;-64
2023/05/15 06:55:08;;;;;;;9.73;4.00;;;;;;;;;;2088868;28;20494;-63
2023/05/15 06:56:27;;;;;;;11.45;4.05;;;;;;;;;;2091643;28;20025;-63
2023/05/15 06:57:46;;;;;;;9.38;4.18;;;;;;;;;;2089348;28;20033;-65
2023/05/15 06:59:05;;;;;;;12.30;4.15;;;;;;;;;;2089078;28;20120;-63
2023/05/15 07:00:24;;;;;;;5.50;4.10;;;;;;;;;;2088608;28;20050;-64
2023/05/15 07:01:43;;;;;;;9.55;3.60;;;;;;;;;;2095135;28;20386;-63
2023/05/15 07:03:02;;;;;;;7.05;3.60;;;;;;;;;;2090821;28;20056;-64
2023/05/15 07:04:20;;;;;;;13.13;3.97;;;;;;;;;;2090290;28;20485;-63
2023/05/15 07:05:39;;;;;;;11.23;3.90;;;;;;;;;;2080873;28;20506;-66
2023/05/15 07:06:58;;;;;;;10.15;4.20;;;;;;;;;;2083530;28;20028;-63
2023/05/15 07:08:18;;;;;;;10.60;3.78;;;;;;;;;;2092459;28;20462;-64
2023/05/15 07:09:38;;;;;;;7.55;3.95;;;;;;;;;;2091037;28;20036;-64
2023/05/15 07:10:56;;;;;;;11.07;3.30;;;;;;;;;;2090845;28;20036;-64
2023/05/15 07:12:15;;;;;;;17.95;4.00;;;;;;;;;;2093594;28;20028;-63
2023/05/15 07:13:34;;;;;;;13.00;3.78;;;;;;;;;;2091701;28;20116;-64
2023/05/15 07:14:53;;;;;;;13.38;4.45;;;;;;;;;;2090198;28;20024;-64
2023/05/15 07:16:12;;;;;;;10.57;4.00;;;;;;;;;;2091203;28;20021;-63
2023/05/15 07:17:32;;;;;;;12.18;4.25;;;;;;;;;;2091621;28;20029;-63
2023/05/15 07:18:51;;;;;;;12.15;4.13;;;;;;;;;;2090835;28;20033;-64
2023/05/15 07:20:10;;;;;;;17.55;4.25;;;;;;;;;;2092109;28;20038;-63
2023/05/15 07:21:29;;;;;;;13.27;4.05;;;;;;;;;;2087660;28;20033;-64
2023/05/15 07:22:48;;;;;;;9.43;4.20;;;;;;;;;;2085637;28;20110;-64
2023/05/15 07:24:07;;;;;;;11.90;3.70;;;;;;;;;;2091106;28;20033;-63
2023/05/15 07:25:26;;;;;;;11.80;5.03;;;;;;;;;;2095201;28;20024;-63
2023/05/15 07:26:45;;;;;;;12.32;3.95;;;;;;;;;;2091084;28;20028;-63
2023/05/15 07:28:04;;;;;;;15.73;4.45;;;;;;;;;;2087235;28;20040;-63
2023/05/15 07:29:23;;;;;;;15.02;4.38;;;;;;;;;;2087689;28;20041;-63
2023/05/15 07:30:42;;;;;;;15.70;4.10;;;;;;;;;;2090116;28;20479;-63
2023/05/15 07:32:02;;;;;;;16.17;4.43;;;;;;;;;;2092923;28;20033;-63
2023/05/15 07:33:21;;;;;;;9.77;3.80;;;;;;;;;;2087516;28;20028;-66
2023/05/15 07:34:41;;;;;;;20.85;4.53;;;;;;;;;;2086148;28;20032;-63
2023/05/15 07:36:00;;;;;;;13.98;4.40;;;;;;;;;;2089436;28;20127;-64
2023/05/15 07:37:19;;;;;;;10.43;4.07;;;;;;;;;;2090138;28;20041;-64
2023/05/15 07:38:38;;;;;;;21.73;5.32;;;;;;;;;;2092632;28;20033;-64
2023/05/15 07:39:57;;;;;;;43.95;7.60;;;;;;;;;;2090877;28;20028;-64
2023/05/15 07:41:16;;;;;;;28.50;5.03;;;;;;;;;;2091153;28;20025;-64
2023/05/15 07:42:35;;;;;;;21.55;5.78;;;;;;;;;;2091473;28;20482;-64
2023/05/15 07:43:54;;;;;;;19.83;4.72;;;;;;;;;;2092090;28;20528;-63
2023/05/15 07:45:13;;;;;;;18.60;4.63;;;;;;;;;;2094480;28;20028;-63
2023/05/15 07:46:32;;;;;;;19.17;4.85;;;;;;;;;;2092234;28;20390;-64
2023/05/15 07:47:51;;;;;;;23.23;4.70;;;;;;;;;;2092273;28;20046;-64
2023/05/15 07:49:10;;;;;;;34.00;7.10;;;;;;;;;;2093222;28;20028;-63
2023/05/15 07:50:29;;;;;;;59.08;8.15;;;;;;;;;;2095102;28;20041;-64
2023/05/15 07:51:48;;;;;;;63.88;8.68;;;;;;;;;;2091825;28;20040;-63
2023/05/15 07:53:07;;;;;;;15.80;4.93;;;;;;;;;;2093306;28;20040;-63
2023/05/15 07:54:26;;;;;;;12.38;4.30;;;;;;;;;;2093427;28;20486;-64
2023/05/15 07:55:45;;;;;;;11.52;4.25;;;;;;;;;;2091223;28;20473;-63